Relevés horaires Florennes (Belgique)


Relevés horaires à Florennes - Mercredi 09 Juin 2021
Heure UTC1 Température [°C] Vent [km/h] Hum. [%] Pres.4 [hPa] Visi. [Km] Nébu. [octa] Préc.5 [mm] Cond.
2m. Res. Ros. Dir.2 Vit. Moy. Raf.3
23:00 14.8 14.8 9.4 NNO 1.9 -- 1.9 70 1022.7(0.0/3h) 19 -- -- --
22:00 15.5 15.5 10.1 NNO 1.9 -- 1.9 70 1022.6(0.5/3h) 18 -- -- --
21:00 17.2 17.2 11.2 NNO 0.0 -- 7.4 68 1022.6(1.0/3h) 13 -- -- --
20:00 18.9 18.9 10.9 NNO 1.9 -- 5.6 60 1022.2(0.9/3h) 14 -- -- --
19:00 19.8 19.8 11.5 NNO 1.9 -- 7.4 59 1021.5(0.2/3h) 20 -- -- --
18:00 21.6 21.6 13.5 N 3.7 -- 11.1 60 1021(-0.2/3h) 20 -- -- --
17:00 22.8 22.8 11.2 NO 3.7 -- 9.3 48 1020.7(-0.6/3h) 17 -- -- --
15:00 22.7 22.7 12.5 ONO 5.6 -- 11.1 53 1021.1(-0.7/3h) 15 4/8 -- --
14:00 22.9 22.9 12.7 NNO 5.6 -- 9.3 53 1021.2(-0.7/3h) 15 4/8 -- --
13:00 22.8 22.8 13.1 NNO 3.7 -- 11.1 54 1021.6(-0.4/3h) 15 4/8 -- --
12:00 22.1 22.1 14.0 NNO 5.6 -- 9.3 60 1021.8(0.0/3h) 15 4/8 -- --
11:00 22.3 22.3 13.3 NNO 1.9 -- 9.3 57 1022.2(0.3/3h) 15 4/8 -- --
10:00 21.7 21.7 14.6 NNO 1.9 -- 7.4 64 1022.2(0.3/3h) 8 4/8 -- --
09:00 21.4 21.4 15.4 N 3.7 -- 5.6 69 1022(0.2/3h) 8 4/8 -- --
08:00 20.2 20.2 14.4 NNO 1.9 -- 3.7 69 1022.1(0.4/3h) 8 4/8 -- --
07:00 17.7 17.7 12.8 NNO 1.9 -- 1.9 73 1022.2(0.3/3h) 6 4/8 -- --
06:00 15.9 15.9 13.0 NNO 1.9 -- 3.7 83 1022.3(0.2/3h) 6 4/8 -- --
05:00 14.9 14.9 11.7 NNO 1.9 -- 1.9 81 1022.2(0.0/3h) 5 -- -- --
04:00 13.3 13.3 10.7 NNO 1.9 -- 3.7 84 1022.5(-0.2/3h) 6 -- -- --
03:00 13.6 13.6 10.8 NNO 1.9 -- 3.7 83 1022.5(-0.4/3h) 6 -- -- --
02:00 13.7 13.7 11.0 NNO 1.9 -- 3.7 84 1022.3(-0.6/3h) 7 -- -- --
01:00 14.6 14.6 11.8 O 3.7 -- 3.7 83 1022.5(-0.2/3h) 8 -- -- --
00:00 15.1 15.1 12.1 NNO 1.9 -- 7.4 82 1022.7(0.0/3h) 9 -- -- --

1 Coordinated Universal Time. Actuellement il est 07:00 locale et 05:00 UTC.

2 Le vent souffle depuis la direction indiquée vers la direction oposée.

3 Les rafales max. sont disponible 40 min après l'heure du relevé.

4 Pour les stations d'altitude (plus de 600m) le géopotentiel du niveau le plus proche de la pression obligatoire est indiqué.

5 Les stations disposant d'un diffuseur peuvent indiquer "trace". Cela signifie que des précipitations ont touchés le sol mais que la quantité est inférieure à 0.1 mm.

Récapitulatif de la journée
Température [°C] Vent [km/h] Ensoleillement4 [h] Precipitations totale5 [mm] Pression [Hpa]
Min1 Max.2 Moy.3 Max. Min Max.
12.6 23.6 0 11.1 0 h 0 min 0 1020.7 1022.7

1 Température minimale relevée entre 18:00 UTC la veille et 18:00 UTC le jour donné.

2 Température maximale relevée entre 06:00 UTC le jour donné et 06:00 UTC le lendemain.

3 Vent moyen de la journée basé sur les relevés horaires.

4 Ensoleillement en heures relevé entre 06:00 UTC la veille et 06:00 UTC le jour donné.

5 Précipitations totales tombées entre 06:00 UTC la jour donné et 06:00 UTC le lendemain.

Graphiques horaires